5B9 weather

Dean Memorial Airport
Haverhill, New Hampshire, United States

Public forecast

Using degrees Fahrenheit for public forecast. Weather courtesy of forecast.io.

Closest aviation weather report (METAR) to Dean Memorial Airport

Closest report is Edward F Knapp State Airport, 25.0 nm (46.3 km) WNW. Retrieved 2019/10/18 14:51 UTC (50 minutes ago):

KMPV 181451Z AUTO 31014G19KT 10SM BKN015 OVC020 06/04 A2976 RMK AO2 SLP087 60001 T00610039 52030

Closest aviation forecast (TAF) to Dean Memorial Airport

Closest forecast is Edward F Knapp State Airport, 25.0 nm (46.3 km) WNW. Retrieved 2019/10/18 12:33 UTC (3 hours ago):

TAF KMPV 181131Z 1812/1912 31010G18KT P6SM VCSH OVC016 TEMPO 1812/1815 -SHRA FM181500 31012G20KT P6SM BKN022 OVC035 FM190000 31008KT P6SM BKN035